sensor_id;sensor_type;location;lat;lon;timestamp;temperature;humidity
23550;DHT22;11953;49.010;8.608;2022-12-13T00:00:52;-3.30;99.90
23550;DHT22;11953;49.010;8.608;2022-12-13T00:03:40;-3.30;99.90
23550;DHT22;11953;49.010;8.608;2022-12-13T00:06:28;-3.40;99.90
23550;DHT22;11953;49.010;8.608;2022-12-13T00:09:17;-3.50;99.90
23550;DHT22;11953;49.010;8.608;2022-12-13T00:12:04;-3.50;99.90
23550;DHT22;11953;49.010;8.608;2022-12-13T00:14:50;-3.60;99.90
23550;DHT22;11953;49.010;8.608;2022-12-13T00:17:37;-3.60;99.90
23550;DHT22;11953;49.010;8.608;2022-12-13T00:20:25;-3.60;99.90
23550;DHT22;11953;49.010;8.608;2022-12-13T00:23:11;-3.60;99.90
23550;DHT22;11953;49.010;8.608;2022-12-13T00:26:01;-3.50;99.90
23550;DHT22;11953;49.010;8.608;2022-12-13T00:28:49;-3.60;99.90
23550;DHT22;11953;49.010;8.608;2022-12-13T00:31:37;-3.60;99.90
23550;DHT22;11953;49.010;8.608;2022-12-13T00:34:44;-3.60;99.90
23550;DHT22;11953;49.010;8.608;2022-12-13T00:37:31;-3.60;99.90
23550;DHT22;11953;49.010;8.608;2022-12-13T00:40:18;-3.60;99.90
23550;DHT22;11953;49.010;8.608;2022-12-13T00:43:05;-3.60;99.90
23550;DHT22;11953;49.010;8.608;2022-12-13T00:45:52;-3.50;99.90
23550;DHT22;11953;49.010;8.608;2022-12-13T00:48:39;-3.40;99.90
23550;DHT22;11953;49.010;8.608;2022-12-13T00:51:28;-3.40;99.90
23550;DHT22;11953;49.010;8.608;2022-12-13T00:54:16;-3.40;99.90
23550;DHT22;11953;49.010;8.608;2022-12-13T00:57:03;-3.40;99.90
23550;DHT22;11953;49.010;8.608;2022-12-13T00:59:49;-3.40;99.90
23550;DHT22;11953;49.010;8.608;2022-12-13T01:02:36;-3.60;99.90
23550;DHT22;11953;49.010;8.608;2022-12-13T01:05:22;-3.50;99.90
23550;DHT22;11953;49.010;8.608;2022-12-13T01:08:29;-3.50;99.90
23550;DHT22;11953;49.010;8.608;2022-12-13T01:11:17;-3.60;99.90
23550;DHT22;11953;49.010;8.608;2022-12-13T01:14:04;-3.60;99.90
23550;DHT22;11953;49.010;8.608;2022-12-13T01:16:51;-3.70;99.90
23550;DHT22;11953;49.010;8.608;2022-12-13T01:19:40;-3.80;99.90
23550;DHT22;11953;49.010;8.608;2022-12-13T01:22:27;-3.70;99.90
23550;DHT22;11953;49.010;8.608;2022-12-13T01:25:13;-3.60;99.90
23550;DHT22;11953;49.010;8.608;2022-12-13T01:28:02;-3.60;99.90
23550;DHT22;11953;49.010;8.608;2022-12-13T01:30:55;-3.60;99.90
23550;DHT22;11953;49.010;8.608;2022-12-13T01:33:42;-3.60;99.90
23550;DHT22;11953;49.010;8.608;2022-12-13T01:36:29;-3.60;99.90
23550;DHT22;11953;49.010;8.608;2022-12-13T01:39:19;-3.60;99.90
23550;DHT22;11953;49.010;8.608;2022-12-13T01:42:13;-3.60;99.90
23550;DHT22;11953;49.010;8.608;2022-12-13T01:45:04;-3.80;99.90
23550;DHT22;11953;49.010;8.608;2022-12-13T01:47:53;-3.90;99.90
23550;DHT22;11953;49.010;8.608;2022-12-13T01:50:45;-3.90;99.90
23550;DHT22;11953;49.010;8.608;2022-12-13T01:53:36;-3.90;99.90
23550;DHT22;11953;49.010;8.608;2022-12-13T01:56:28;-4.00;99.90
23550;DHT22;11953;49.010;8.608;2022-12-13T01:59:17;-3.90;99.90
23550;DHT22;11953;49.010;8.608;2022-12-13T02:02:06;-4.00;99.90
23550;DHT22;11953;49.010;8.608;2022-12-13T02:04:58;-4.00;99.90
23550;DHT22;11953;49.010;8.608;2022-12-13T02:07:50;-3.90;99.90
23550;DHT22;11953;49.010;8.608;2022-12-13T02:10:36;-3.90;99.90
23550;DHT22;11953;49.010;8.608;2022-12-13T02:13:24;-3.90;99.90
23550;DHT22;11953;49.010;8.608;2022-12-13T02:16:18;-4.00;99.90
23550;DHT22;11953;49.010;8.608;2022-12-13T02:22:38;-4.00;99.90
23550;DHT22;11953;49.010;8.608;2022-12-13T02:25:43;-4.00;99.90
23550;DHT22;11953;49.010;8.608;2022-12-13T02:28:48;-3.90;99.90
23550;DHT22;11953;49.010;8.608;2022-12-13T02:31:46;-4.00;99.90
23550;DHT22;11953;49.010;8.608;2022-12-13T02:34:37;-4.10;99.90
23550;DHT22;11953;49.010;8.608;2022-12-13T02:37:29;-4.10;99.90
23550;DHT22;11953;49.010;8.608;2022-12-13T02:40:22;-4.10;99.90
23550;DHT22;11953;49.010;8.608;2022-12-13T02:43:12;-4.10;99.90
23550;DHT22;11953;49.010;8.608;2022-12-13T02:46:06;-4.10;99.90
23550;DHT22;11953;49.010;8.608;2022-12-13T02:48:58;-4.00;99.90
23550;DHT22;11953;49.010;8.608;2022-12-13T02:51:46;-4.00;99.90
23550;DHT22;11953;49.010;8.608;2022-12-13T02:54:33;-4.00;99.90
23550;DHT22;11953;49.010;8.608;2022-12-13T02:57:29;-3.90;99.90
23550;DHT22;11953;49.010;8.608;2022-12-13T03:00:19;-3.90;99.90
23550;DHT22;11953;49.010;8.608;2022-12-13T03:03:12;-3.90;99.90
23550;DHT22;11953;49.010;8.608;2022-12-13T03:06:15;-4.00;99.90
23550;DHT22;11953;49.010;8.608;2022-12-13T03:09:29;-4.00;99.90
23550;DHT22;11953;49.010;8.608;2022-12-13T03:12:24;-4.00;99.90
23550;DHT22;11953;49.010;8.608;2022-12-13T03:15:33;-3.90;99.90
23550;DHT22;11953;49.010;8.608;2022-12-13T03:18:23;-3.90;99.90
23550;DHT22;11953;49.010;8.608;2022-12-13T03:21:12;-3.90;99.90
23550;DHT22;11953;49.010;8.608;2022-12-13T03:23:59;-3.90;99.90
23550;DHT22;11953;49.010;8.608;2022-12-13T03:26:46;-3.90;99.90
23550;DHT22;11953;49.010;8.608;2022-12-13T03:29:34;-3.90;99.90
23550;DHT22;11953;49.010;8.608;2022-12-13T03:32:21;-3.80;99.90
23550;DHT22;11953;49.010;8.608;2022-12-13T03:35:08;-3.70;99.90
23550;DHT22;11953;49.010;8.608;2022-12-13T03:38:08;-3.70;99.90
23550;DHT22;11953;49.010;8.608;2022-12-13T03:40:56;-3.70;99.90
23550;DHT22;11953;49.010;8.608;2022-12-13T03:43:44;-3.60;99.90
23550;DHT22;11953;49.010;8.608;2022-12-13T03:46:31;-3.50;99.90
23550;DHT22;11953;49.010;8.608;2022-12-13T03:49:18;-3.60;99.90
23550;DHT22;11953;49.010;8.608;2022-12-13T03:52:05;-3.70;99.90
23550;DHT22;11953;49.010;8.608;2022-12-13T03:54:53;-3.80;99.90
23550;DHT22;11953;49.010;8.608;2022-12-13T03:57:39;-3.70;99.90
23550;DHT22;11953;49.010;8.608;2022-12-13T04:00:26;-3.80;99.90
23550;DHT22;11953;49.010;8.608;2022-12-13T04:03:12;-3.80;99.90
23550;DHT22;11953;49.010;8.608;2022-12-13T04:05:59;-3.80;99.90
23550;DHT22;11953;49.010;8.608;2022-12-13T04:08:46;-3.90;99.90
23550;DHT22;11953;49.010;8.608;2022-12-13T04:11:36;-3.90;99.90
23550;DHT22;11953;49.010;8.608;2022-12-13T04:14:41;-4.00;99.90
23550;DHT22;11953;49.010;8.608;2022-12-13T04:17:29;-4.00;99.90
23550;DHT22;11953;49.010;8.608;2022-12-13T04:20:15;-3.90;99.90
23550;DHT22;11953;49.010;8.608;2022-12-13T04:23:02;-3.70;99.90
23550;DHT22;11953;49.010;8.608;2022-12-13T04:25:54;-3.80;99.90
23550;DHT22;11953;49.010;8.608;2022-12-13T04:28:42;-3.70;99.90
23550;DHT22;11953;49.010;8.608;2022-12-13T04:31:37;-3.60;99.90
23550;DHT22;11953;49.010;8.608;2022-12-13T04:34:23;-3.50;99.90
23550;DHT22;11953;49.010;8.608;2022-12-13T04:37:10;-3.40;99.90
23550;DHT22;11953;49.010;8.608;2022-12-13T04:39:57;-3.30;99.90
23550;DHT22;11953;49.010;8.608;2022-12-13T04:42:45;-3.30;99.90
23550;DHT22;11953;49.010;8.608;2022-12-13T04:45:40;-3.40;99.90
23550;DHT22;11953;49.010;8.608;2022-12-13T04:48:27;-3.60;99.90
23550;DHT22;11953;49.010;8.608;2022-12-13T04:51:15;-3.60;99.90
23550;DHT22;11953;49.010;8.608;2022-12-13T04:54:02;-3.70;99.90
23550;DHT22;11953;49.010;8.608;2022-12-13T04:57:10;-3.70;99.90
23550;DHT22;11953;49.010;8.608;2022-12-13T04:59:56;-3.80;99.90
23550;DHT22;11953;49.010;8.608;2022-12-13T05:02:44;-3.90;99.90
23550;DHT22;11953;49.010;8.608;2022-12-13T05:05:30;-3.90;99.90
23550;DHT22;11953;49.010;8.608;2022-12-13T05:08:17;-3.70;99.90
23550;DHT22;11953;49.010;8.608;2022-12-13T05:11:04;-3.70;99.90
23550;DHT22;11953;49.010;8.608;2022-12-13T05:13:51;-3.60;99.90
23550;DHT22;11953;49.010;8.608;2022-12-13T05:16:38;-3.60;99.90
23550;DHT22;11953;49.010;8.608;2022-12-13T05:19:27;-3.70;99.90
23550;DHT22;11953;49.010;8.608;2022-12-13T05:22:15;-3.70;99.90
23550;DHT22;11953;49.010;8.608;2022-12-13T05:25:06;-3.70;99.90
23550;DHT22;11953;49.010;8.608;2022-12-13T05:27:53;-3.80;99.90
23550;DHT22;11953;49.010;8.608;2022-12-13T05:30:42;-4.10;99.90
23550;DHT22;11953;49.010;8.608;2022-12-13T05:33:29;-4.10;99.90
23550;DHT22;11953;49.010;8.608;2022-12-13T05:36:18;-4.00;99.90
23550;DHT22;11953;49.010;8.608;2022-12-13T05:39:06;-4.00;99.90
23550;DHT22;11953;49.010;8.608;2022-12-13T05:42:13;-3.90;99.90
23550;DHT22;11953;49.010;8.608;2022-12-13T05:44:59;-3.80;99.90
23550;DHT22;11953;49.010;8.608;2022-12-13T05:47:46;-3.70;99.90
23550;DHT22;11953;49.010;8.608;2022-12-13T05:50:35;-3.60;99.90
23550;DHT22;11953;49.010;8.608;2022-12-13T05:53:24;-3.70;99.90
23550;DHT22;11953;49.010;8.608;2022-12-13T05:56:15;-3.70;99.90
23550;DHT22;11953;49.010;8.608;2022-12-13T05:59:07;-3.90;99.90
23550;DHT22;11953;49.010;8.608;2022-12-13T06:01:54;-3.80;99.90
23550;DHT22;11953;49.010;8.608;2022-12-13T06:04:40;-3.70;99.90
23550;DHT22;11953;49.010;8.608;2022-12-13T06:07:27;-3.70;99.90
23550;DHT22;11953;49.010;8.608;2022-12-13T06:10:15;-3.70;99.90
23550;DHT22;11953;49.010;8.608;2022-12-13T06:13:06;-3.80;99.90
23550;DHT22;11953;49.010;8.608;2022-12-13T06:16:13;-3.70;99.90
23550;DHT22;11953;49.010;8.608;2022-12-13T06:19:08;-3.70;99.90
23550;DHT22;11953;49.010;8.608;2022-12-13T06:21:54;-3.80;99.90
23550;DHT22;11953;49.010;8.608;2022-12-13T06:24:41;-3.70;99.90
23550;DHT22;11953;49.010;8.608;2022-12-13T06:27:28;-3.80;99.90
23550;DHT22;11953;49.010;8.608;2022-12-13T06:30:15;-3.70;99.90
23550;DHT22;11953;49.010;8.608;2022-12-13T06:33:01;-3.90;99.90
23550;DHT22;11953;49.010;8.608;2022-12-13T06:35:48;-4.00;99.90
23550;DHT22;11953;49.010;8.608;2022-12-13T06:38:37;-4.00;99.90
23550;DHT22;11953;49.010;8.608;2022-12-13T06:41:28;-3.80;99.90
23550;DHT22;11953;49.010;8.608;2022-12-13T06:44:18;-3.90;99.90
23550;DHT22;11953;49.010;8.608;2022-12-13T06:47:04;-3.80;99.90
23550;DHT22;11953;49.010;8.608;2022-12-13T06:49:56;-3.80;99.90
23550;DHT22;11953;49.010;8.608;2022-12-13T06:52:49;-3.80;99.90
23550;DHT22;11953;49.010;8.608;2022-12-13T06:55:36;-3.90;99.90
23550;DHT22;11953;49.010;8.608;2022-12-13T06:58:22;-3.90;99.90
23550;DHT22;11953;49.010;8.608;2022-12-13T07:01:13;-3.90;99.90
23550;DHT22;11953;49.010;8.608;2022-12-13T07:04:10;-3.90;99.90
23550;DHT22;11953;49.010;8.608;2022-12-13T07:07:14;-4.10;99.90
23550;DHT22;11953;49.010;8.608;2022-12-13T07:10:01;-3.90;99.90
23550;DHT22;11953;49.010;8.608;2022-12-13T07:12:49;-3.90;99.90
23550;DHT22;11953;49.010;8.608;2022-12-13T07:15:35;-3.80;99.90
23550;DHT22;11953;49.010;8.608;2022-12-13T07:18:24;-3.90;99.90
23550;DHT22;11953;49.010;8.608;2022-12-13T07:21:12;-3.90;99.90
23550;DHT22;11953;49.010;8.608;2022-12-13T07:24:06;-3.90;99.90
23550;DHT22;11953;49.010;8.608;2022-12-13T07:26:53;-3.80;99.90
23550;DHT22;11953;49.010;8.608;2022-12-13T07:29:40;-3.80;99.90
23550;DHT22;11953;49.010;8.608;2022-12-13T07:32:27;-3.70;99.90
23550;DHT22;11953;49.010;8.608;2022-12-13T07:35:14;-3.60;99.90
23550;DHT22;11953;49.010;8.608;2022-12-13T07:38:01;-3.50;99.90
23550;DHT22;11953;49.010;8.608;2022-12-13T07:40:47;-3.50;99.90
23550;DHT22;11953;49.010;8.608;2022-12-13T07:43:36;-3.60;99.90
23550;DHT22;11953;49.010;8.608;2022-12-13T07:46:23;-3.50;99.90
23550;DHT22;11953;49.010;8.608;2022-12-13T07:49:18;-3.70;99.90
23550;DHT22;11953;49.010;8.608;2022-12-13T07:52:09;-3.80;99.90
23550;DHT22;11953;49.010;8.608;2022-12-13T07:54:56;-3.90;99.90
23550;DHT22;11953;49.010;8.608;2022-12-13T07:57:42;-3.80;99.90
23550;DHT22;11953;49.010;8.608;2022-12-13T08:00:29;-3.70;99.90
23550;DHT22;11953;49.010;8.608;2022-12-13T08:03:17;-3.80;99.90
23550;DHT22;11953;49.010;8.608;2022-12-13T08:06:11;-3.80;99.90
23550;DHT22;11953;49.010;8.608;2022-12-13T08:09:01;-3.90;99.90
23550;DHT22;11953;49.010;8.608;2022-12-13T08:11:48;-4.00;99.90
23550;DHT22;11953;49.010;8.608;2022-12-13T08:14:34;-4.00;99.90
23550;DHT22;11953;49.010;8.608;2022-12-13T08:17:20;-3.90;99.90
23550;DHT22;11953;49.010;8.608;2022-12-13T08:20:08;-3.90;99.90
23550;DHT22;11953;49.010;8.608;2022-12-13T08:22:55;-4.00;99.90
23550;DHT22;11953;49.010;8.608;2022-12-13T08:25:51;-3.90;99.90
23550;DHT22;11953;49.010;8.608;2022-12-13T08:28:38;-3.80;99.90
23550;DHT22;11953;49.010;8.608;2022-12-13T08:31:25;-3.70;99.90
23550;DHT22;11953;49.010;8.608;2022-12-13T08:34:18;-3.70;99.90
23550;DHT22;11953;49.010;8.608;2022-12-13T08:37:05;-3.50;99.90
23550;DHT22;11953;49.010;8.608;2022-12-13T08:39:51;-3.30;99.90
23550;DHT22;11953;49.010;8.608;2022-12-13T08:42:39;-3.10;99.90
23550;DHT22;11953;49.010;8.608;2022-12-13T08:45:26;-3.00;99.90
23550;DHT22;11953;49.010;8.608;2022-12-13T08:48:12;-3.00;99.90
23550;DHT22;11953;49.010;8.608;2022-12-13T08:51:00;-2.90;99.90
23550;DHT22;11953;49.010;8.608;2022-12-13T08:53:47;-2.70;99.90
23550;DHT22;11953;49.010;8.608;2022-12-13T08:56:33;-2.80;99.90
23550;DHT22;11953;49.010;8.608;2022-12-13T08:59:23;-3.00;99.90
23550;DHT22;11953;49.010;8.608;2022-12-13T09:02:11;-3.10;99.90
23550;DHT22;11953;49.010;8.608;2022-12-13T09:04:59;-3.10;99.90
23550;DHT22;11953;49.010;8.608;2022-12-13T09:07:45;-2.90;99.90
23550;DHT22;11953;49.010;8.608;2022-12-13T09:10:32;-2.90;99.90
23550;DHT22;11953;49.010;8.608;2022-12-13T09:13:22;-3.00;99.90
23550;DHT22;11953;49.010;8.608;2022-12-13T09:16:20;-3.00;99.90
23550;DHT22;11953;49.010;8.608;2022-12-13T09:19:09;-3.00;99.90
23550;DHT22;11953;49.010;8.608;2022-12-13T09:22:11;-3.10;99.90
23550;DHT22;11953;49.010;8.608;2022-12-13T09:24:59;-3.10;99.90
23550;DHT22;11953;49.010;8.608;2022-12-13T09:27:47;-3.00;99.90
23550;DHT22;11953;49.010;8.608;2022-12-13T09:30:33;-2.90;99.90
23550;DHT22;11953;49.010;8.608;2022-12-13T09:33:22;-2.80;99.90
23550;DHT22;11953;49.010;8.608;2022-12-13T09:36:17;-2.80;99.90
23550;DHT22;11953;49.010;8.608;2022-12-13T09:39:04;-2.80;99.90
23550;DHT22;11953;49.010;8.608;2022-12-13T09:41:52;-2.70;99.90
23550;DHT22;11953;49.010;8.608;2022-12-13T09:44:50;-2.60;99.90
23550;DHT22;11953;49.010;8.608;2022-12-13T09:47:48;-2.60;99.90
23550;DHT22;11953;49.010;8.608;2022-12-13T09:50:47;-2.50;99.90
23550;DHT22;11953;49.010;8.608;2022-12-13T09:53:43;-2.50;99.90
23550;DHT22;11953;49.010;8.608;2022-12-13T09:56:32;-2.50;99.90
23550;DHT22;11953;49.010;8.608;2022-12-13T09:59:22;-2.50;99.90
23550;DHT22;11953;49.010;8.608;2022-12-13T10:02:14;-2.50;99.90
23550;DHT22;11953;49.010;8.608;2022-12-13T10:05:15;-2.40;99.90
23550;DHT22;11953;49.010;8.608;2022-12-13T10:08:13;-2.20;99.90
23550;DHT22;11953;49.010;8.608;2022-12-13T10:11:00;-2.20;99.90
23550;DHT22;11953;49.010;8.608;2022-12-13T10:13:53;-2.00;99.90
23550;DHT22;11953;49.010;8.608;2022-12-13T10:16:49;-2.10;99.90
23550;DHT22;11953;49.010;8.608;2022-12-13T10:19:39;-2.20;99.90
23550;DHT22;11953;49.010;8.608;2022-12-13T10:22:26;-2.10;99.90
23550;DHT22;11953;49.010;8.608;2022-12-13T10:25:14;-1.90;99.90
23550;DHT22;11953;49.010;8.608;2022-12-13T10:28:04;-1.90;99.90
23550;DHT22;11953;49.010;8.608;2022-12-13T10:30:51;-1.80;99.90
23550;DHT22;11953;49.010;8.608;2022-12-13T10:33:40;-1.80;99.90
23550;DHT22;11953;49.010;8.608;2022-12-13T10:36:31;-1.80;99.90
23550;DHT22;11953;49.010;8.608;2022-12-13T10:39:34;-1.80;99.90
23550;DHT22;11953;49.010;8.608;2022-12-13T10:42:22;-1.70;99.90
23550;DHT22;11953;49.010;8.608;2022-12-13T10:45:20;-1.80;99.90
23550;DHT22;11953;49.010;8.608;2022-12-13T10:48:18;-1.90;99.90
23550;DHT22;11953;49.010;8.608;2022-12-13T10:51:07;-1.90;99.90
23550;DHT22;11953;49.010;8.608;2022-12-13T10:53:56;-1.80;99.90
23550;DHT22;11953;49.010;8.608;2022-12-13T10:56:46;-1.80;99.90
23550;DHT22;11953;49.010;8.608;2022-12-13T10:59:36;-1.90;99.90
23550;DHT22;11953;49.010;8.608;2022-12-13T11:02:30;-1.70;99.90
23550;DHT22;11953;49.010;8.608;2022-12-13T11:05:21;-1.60;99.90
23550;DHT22;11953;49.010;8.608;2022-12-13T11:08:13;-1.70;99.90
23550;DHT22;11953;49.010;8.608;2022-12-13T11:11:02;-1.70;99.90
23550;DHT22;11953;49.010;8.608;2022-12-13T11:13:51;-1.70;99.90
23550;DHT22;11953;49.010;8.608;2022-12-13T11:16:40;-1.70;99.90
23550;DHT22;11953;49.010;8.608;2022-12-13T11:19:34;-1.70;99.90
23550;DHT22;11953;49.010;8.608;2022-12-13T11:22:24;-1.50;99.90
23550;DHT22;11953;49.010;8.608;2022-12-13T11:25:19;-1.50;99.90
23550;DHT22;11953;49.010;8.608;2022-12-13T11:28:21;-1.60;99.90
23550;DHT22;11953;49.010;8.608;2022-12-13T11:31:17;-1.40;99.90
23550;DHT22;11953;49.010;8.608;2022-12-13T11:34:15;-1.40;99.90
23550;DHT22;11953;49.010;8.608;2022-12-13T11:37:13;-1.30;99.90
23550;DHT22;11953;49.010;8.608;2022-12-13T11:40:10;-1.40;99.90
23550;DHT22;11953;49.010;8.608;2022-12-13T11:43:04;-1.50;99.90
23550;DHT22;11953;49.010;8.608;2022-12-13T11:45:54;-1.50;99.90
23550;DHT22;11953;49.010;8.608;2022-12-13T11:48:44;-1.30;99.90
23550;DHT22;11953;49.010;8.608;2022-12-13T11:51:40;-1.20;99.90
23550;DHT22;11953;49.010;8.608;2022-12-13T11:54:33;-1.20;99.90
23550;DHT22;11953;49.010;8.608;2022-12-13T11:57:40;-1.40;99.90
23550;DHT22;11953;49.010;8.608;2022-12-13T12:00:33;-1.40;99.90
23550;DHT22;11953;49.010;8.608;2022-12-13T12:03:29;-1.40;99.90
23550;DHT22;11953;49.010;8.608;2022-12-13T12:06:21;-1.30;99.90
23550;DHT22;11953;49.010;8.608;2022-12-13T12:09:13;-1.20;99.90
23550;DHT22;11953;49.010;8.608;2022-12-13T12:12:05;-1.10;99.90
23550;DHT22;11953;49.010;8.608;2022-12-13T12:14:58;-1.10;99.90
23550;DHT22;11953;49.010;8.608;2022-12-13T12:17:59;-1.10;99.90
23550;DHT22;11953;49.010;8.608;2022-12-13T12:20:58;-1.20;99.90
23550;DHT22;11953;49.010;8.608;2022-12-13T12:23:58;-1.10;99.90
23550;DHT22;11953;49.010;8.608;2022-12-13T12:26:56;-1.10;99.90
23550;DHT22;11953;49.010;8.608;2022-12-13T12:30:02;-0.90;99.90
23550;DHT22;11953;49.010;8.608;2022-12-13T12:32:59;-0.70;99.90
23550;DHT22;11953;49.010;8.608;2022-12-13T12:36:16;-0.90;99.90
23550;DHT22;11953;49.010;8.608;2022-12-13T12:42:30;-1.00;99.90
23550;DHT22;11953;49.010;8.608;2022-12-13T12:45:50;-0.90;99.90
23550;DHT22;11953;49.010;8.608;2022-12-13T12:49:06;-0.90;99.90
23550;DHT22;11953;49.010;8.608;2022-12-13T12:52:01;-0.80;99.90
23550;DHT22;11953;49.010;8.608;2022-12-13T12:54:53;-0.80;99.90
23550;DHT22;11953;49.010;8.608;2022-12-13T12:57:58;-0.80;99.90
23550;DHT22;11953;49.010;8.608;2022-12-13T13:00:55;-0.70;99.90
23550;DHT22;11953;49.010;8.608;2022-12-13T13:03:44;-0.70;99.90
23550;DHT22;11953;49.010;8.608;2022-12-13T13:06:34;-0.70;99.90
23550;DHT22;11953;49.010;8.608;2022-12-13T13:09:24;-0.50;99.90
23550;DHT22;11953;49.010;8.608;2022-12-13T13:12:11;-0.50;99.90
23550;DHT22;11953;49.010;8.608;2022-12-13T13:15:49;-0.40;99.90
23550;DHT22;11953;49.010;8.608;2022-12-13T13:18:49;-0.40;99.90
23550;DHT22;11953;49.010;8.608;2022-12-13T13:21:45;-0.40;99.90
23550;DHT22;11953;49.010;8.608;2022-12-13T13:24:32;-0.50;99.90
23550;DHT22;11953;49.010;8.608;2022-12-13T13:27:27;-0.50;99.90
23550;DHT22;11953;49.010;8.608;2022-12-13T13:30:16;-0.60;99.90
23550;DHT22;11953;49.010;8.608;2022-12-13T13:33:40;-0.60;99.90
23550;DHT22;11953;49.010;8.608;2022-12-13T13:36:44;-0.60;99.90
23550;DHT22;11953;49.010;8.608;2022-12-13T13:39:54;-0.50;99.90
23550;DHT22;11953;49.010;8.608;2022-12-13T13:43:06;-0.60;99.90
23550;DHT22;11953;49.010;8.608;2022-12-13T13:45:58;-0.50;99.90
23550;DHT22;11953;49.010;8.608;2022-12-13T13:48:53;-0.50;99.90
23550;DHT22;11953;49.010;8.608;2022-12-13T13:52:11;-0.60;99.90
23550;DHT22;11953;49.010;8.608;2022-12-13T14:20:14;-1.10;99.90
23550;DHT22;11953;49.010;8.608;2022-12-13T14:23:10;-1.10;99.90
23550;DHT22;11953;49.010;8.608;2022-12-13T14:26:18;-1.10;99.90
23550;DHT22;11953;49.010;8.608;2022-12-13T14:29:11;-1.10;99.90
23550;DHT22;11953;49.010;8.608;2022-12-13T14:31:59;-1.20;99.90
23550;DHT22;11953;49.010;8.608;2022-12-13T14:34:48;-1.20;99.90
23550;DHT22;11953;49.010;8.608;2022-12-13T14:37:34;-1.20;99.90
23550;DHT22;11953;49.010;8.608;2022-12-13T14:40:27;-1.30;99.90
23550;DHT22;11953;49.010;8.608;2022-12-13T14:43:22;-1.30;99.90
23550;DHT22;11953;49.010;8.608;2022-12-13T14:46:12;-1.30;99.90
23550;DHT22;11953;49.010;8.608;2022-12-13T14:49:00;-1.40;99.90
23550;DHT22;11953;49.010;8.608;2022-12-13T14:51:54;-1.40;99.90
23550;DHT22;11953;49.010;8.608;2022-12-13T14:54:46;-1.40;99.90
23550;DHT22;11953;49.010;8.608;2022-12-13T14:57:50;-1.50;99.90
23550;DHT22;11953;49.010;8.608;2022-12-13T15:00:39;-1.50;99.90
23550;DHT22;11953;49.010;8.608;2022-12-13T15:03:26;-1.60;99.90
23550;DHT22;11953;49.010;8.608;2022-12-13T15:06:15;-1.50;99.90
23550;DHT22;11953;49.010;8.608;2022-12-13T15:09:04;-1.60;99.90
23550;DHT22;11953;49.010;8.608;2022-12-13T15:11:51;-1.60;99.90
23550;DHT22;11953;49.010;8.608;2022-12-13T15:14:41;-1.60;99.90
23550;DHT22;11953;49.010;8.608;2022-12-13T15:17:31;-1.70;99.90
23550;DHT22;11953;49.010;8.608;2022-12-13T15:20:40;-1.70;99.90
23550;DHT22;11953;49.010;8.608;2022-12-13T15:23:35;-1.70;99.90
23550;DHT22;11953;49.010;8.608;2022-12-13T15:26:43;-1.80;99.90
23550;DHT22;11953;49.010;8.608;2022-12-13T15:29:33;-1.80;99.90
23550;DHT22;11953;49.010;8.608;2022-12-13T15:32:21;-1.80;99.90
23550;DHT22;11953;49.010;8.608;2022-12-13T15:35:15;-1.80;99.90
23550;DHT22;11953;49.010;8.608;2022-12-13T15:38:03;-1.90;99.90
23550;DHT22;11953;49.010;8.608;2022-12-13T15:40:49;-1.80;99.90
23550;DHT22;11953;49.010;8.608;2022-12-13T15:43:42;-1.80;99.90
23550;DHT22;11953;49.010;8.608;2022-12-13T15:46:31;-1.80;99.90
23550;DHT22;11953;49.010;8.608;2022-12-13T15:49:24;-1.80;99.90
23550;DHT22;11953;49.010;8.608;2022-12-13T15:52:30;-1.80;99.90
23550;DHT22;11953;49.010;8.608;2022-12-13T15:55:23;-1.80;99.90
23550;DHT22;11953;49.010;8.608;2022-12-13T15:58:23;-1.80;99.90
23550;DHT22;11953;49.010;8.608;2022-12-13T16:01:24;-1.80;99.90
23550;DHT22;11953;49.010;8.608;2022-12-13T16:04:22;-1.80;99.90
23550;DHT22;11953;49.010;8.608;2022-12-13T16:07:21;-1.80;99.90
23550;DHT22;11953;49.010;8.608;2022-12-13T16:10:16;-1.80;99.90
23550;DHT22;11953;49.010;8.608;2022-12-13T16:13:05;-1.80;99.90
23550;DHT22;11953;49.010;8.608;2022-12-13T16:15:54;-1.80;99.90
23550;DHT22;11953;49.010;8.608;2022-12-13T16:18:54;-1.80;99.90
23550;DHT22;11953;49.010;8.608;2022-12-13T16:21:43;-1.90;99.90
23550;DHT22;11953;49.010;8.608;2022-12-13T16:24:29;-1.80;99.90
23550;DHT22;11953;49.010;8.608;2022-12-13T16:27:16;-1.80;99.90
23550;DHT22;11953;49.010;8.608;2022-12-13T16:30:12;-1.80;99.90
23550;DHT22;11953;49.010;8.608;2022-12-13T16:32:59;-1.80;99.90
23550;DHT22;11953;49.010;8.608;2022-12-13T16:36:07;-1.80;99.90
23550;DHT22;11953;49.010;8.608;2022-12-13T16:38:56;-1.70;99.90
23550;DHT22;11953;49.010;8.608;2022-12-13T16:41:43;-1.70;99.90
23550;DHT22;11953;49.010;8.608;2022-12-13T16:44:33;-1.60;99.90
23550;DHT22;11953;49.010;8.608;2022-12-13T16:47:21;-1.70;99.90
23550;DHT22;11953;49.010;8.608;2022-12-13T16:50:29;-1.70;99.90
23550;DHT22;11953;49.010;8.608;2022-12-13T16:53:15;-1.70;99.90
23550;DHT22;11953;49.010;8.608;2022-12-13T16:56:04;-1.70;99.90
23550;DHT22;11953;49.010;8.608;2022-12-13T16:58:51;-1.70;99.90
23550;DHT22;11953;49.010;8.608;2022-12-13T17:01:37;-1.80;99.90
23550;DHT22;11953;49.010;8.608;2022-12-13T17:04:24;-1.80;99.90
23550;DHT22;11953;49.010;8.608;2022-12-13T17:07:12;-1.90;99.90
23550;DHT22;11953;49.010;8.608;2022-12-13T17:09:59;-2.00;99.90
23550;DHT22;11953;49.010;8.608;2022-12-13T17:12:46;-2.00;99.90
23550;DHT22;11953;49.010;8.608;2022-12-13T17:15:33;-2.00;99.90
23550;DHT22;11953;49.010;8.608;2022-12-13T17:18:19;-1.90;99.90
23550;DHT22;11953;49.010;8.608;2022-12-13T17:21:07;-1.90;99.90
23550;DHT22;11953;49.010;8.608;2022-12-13T17:23:54;-2.00;99.90
23550;DHT22;11953;49.010;8.608;2022-12-13T17:26:41;-2.00;99.90
23550;DHT22;11953;49.010;8.608;2022-12-13T17:29:41;-2.10;99.90
23550;DHT22;11953;49.010;8.608;2022-12-13T17:32:27;-2.00;99.90
23550;DHT22;11953;49.010;8.608;2022-12-13T17:35:14;-2.00;99.90
23550;DHT22;11953;49.010;8.608;2022-12-13T17:38:03;-2.00;99.90
23550;DHT22;11953;49.010;8.608;2022-12-13T17:40:51;-2.00;99.90
23550;DHT22;11953;49.010;8.608;2022-12-13T17:43:39;-2.10;99.90
23550;DHT22;11953;49.010;8.608;2022-12-13T17:46:28;-2.10;99.90
23550;DHT22;11953;49.010;8.608;2022-12-13T17:49:15;-2.00;99.90
23550;DHT22;11953;49.010;8.608;2022-12-13T17:52:01;-2.10;99.90
23550;DHT22;11953;49.010;8.608;2022-12-13T17:54:47;-2.10;99.90
23550;DHT22;11953;49.010;8.608;2022-12-13T17:57:34;-2.10;99.90
23550;DHT22;11953;49.010;8.608;2022-12-13T18:00:21;-2.00;99.90
23550;DHT22;11953;49.010;8.608;2022-12-13T18:03:10;-2.00;99.90
23550;DHT22;11953;49.010;8.608;2022-12-13T18:05:57;-2.00;99.90
23550;DHT22;11953;49.010;8.608;2022-12-13T18:08:45;-2.00;99.90
23550;DHT22;11953;49.010;8.608;2022-12-13T18:11:31;-2.00;99.90
23550;DHT22;11953;49.010;8.608;2022-12-13T18:14:19;-2.00;99.90
23550;DHT22;11953;49.010;8.608;2022-12-13T18:17:06;-2.00;99.90
23550;DHT22;11953;49.010;8.608;2022-12-13T18:19:53;-2.10;99.90
23550;DHT22;11953;49.010;8.608;2022-12-13T18:22:40;-2.00;99.90
23550;DHT22;11953;49.010;8.608;2022-12-13T18:25:34;-2.00;99.90
23550;DHT22;11953;49.010;8.608;2022-12-13T18:28:20;-2.00;99.90
23550;DHT22;11953;49.010;8.608;2022-12-13T18:31:08;-2.00;99.90
23550;DHT22;11953;49.010;8.608;2022-12-13T18:33:57;-2.00;99.90